createdAt,value
2023-11-18T00:01:51.690Z,6.00
2023-11-18T00:04:18.564Z,6.28
2023-11-18T00:06:45.996Z,6.35
2023-11-18T00:09:16.152Z,6.32
2023-11-18T00:14:12.782Z,6.17
2023-11-18T00:16:40.286Z,6.15
2023-11-18T00:19:07.364Z,6.68
2023-11-18T00:21:34.230Z,6.45
2023-11-18T00:24:01.039Z,6.32
2023-11-18T00:26:27.850Z,6.18
2023-11-18T00:28:54.781Z,5.70
2023-11-18T00:31:21.841Z,5.57
2023-11-18T00:33:48.663Z,5.05
2023-11-18T00:36:15.496Z,5.40
2023-11-18T00:38:42.305Z,5.38
2023-11-18T00:41:09.634Z,5.20
2023-11-18T00:43:37.656Z,4.97
2023-11-18T00:46:06.207Z,4.78
2023-11-18T00:48:33.057Z,4.93
2023-11-18T00:50:59.926Z,4.70
2023-11-18T00:53:26.712Z,4.55
2023-11-18T00:55:53.586Z,4.30
2023-11-18T00:58:21.261Z,3.85
2023-11-18T01:00:48.101Z,3.92
2023-11-18T01:03:15.007Z,3.42
2023-11-18T01:05:42.107Z,3.50
2023-11-18T01:08:09.953Z,3.63
2023-11-18T01:10:36.801Z,3.42
2023-11-18T01:13:03.633Z,3.40
2023-11-18T01:15:32.726Z,3.40
2023-11-18T01:17:59.651Z,3.38
2023-11-18T01:20:26.704Z,3.22
2023-11-18T01:22:53.561Z,3.42
2023-11-18T01:25:20.445Z,3.40
2023-11-18T01:27:47.955Z,3.50
2023-11-18T01:30:16.190Z,3.10
2023-11-18T01:32:43.422Z,3.40
2023-11-18T01:35:12.437Z,3.10
2023-11-18T01:37:39.847Z,3.28
2023-11-18T01:40:08.691Z,2.95
2023-11-18T01:42:36.103Z,3.40
2023-11-18T01:45:05.036Z,2.85
2023-11-18T01:47:35.356Z,2.95
2023-11-18T01:52:31.727Z,2.75
2023-11-18T01:55:00.656Z,2.70
2023-11-18T01:57:30.333Z,2.85
2023-11-18T01:59:57.713Z,2.75
2023-11-18T02:02:25.171Z,2.65
2023-11-18T02:04:52.214Z,2.60
2023-11-18T02:07:19.408Z,2.60
2023-11-18T02:09:46.999Z,2.83
2023-11-18T02:12:29.127Z,2.90
2023-11-18T02:14:58.924Z,2.90
2023-11-18T02:17:28.554Z,3.33
2023-11-18T02:19:58.278Z,3.03
2023-11-18T02:22:26.782Z,3.13
2023-11-18T02:24:54.474Z,3.10
2023-11-18T02:27:23.262Z,2.80
2023-11-18T02:29:52.484Z,2.75
2023-11-18T02:32:32.969Z,3.40
2023-11-18T02:35:27.207Z,2.75
2023-11-18T02:37:56.362Z,2.58
2023-11-18T02:40:52.332Z,3.00
2023-11-18T02:43:20.117Z,2.85
2023-11-18T02:45:49.098Z,2.85
2023-11-18T02:48:16.288Z,2.83
2023-11-18T02:50:44.052Z,2.72
2023-11-18T02:53:10.950Z,2.60
2023-11-18T02:55:37.803Z,2.65
2023-11-18T02:58:06.953Z,2.63
2023-11-18T03:00:34.968Z,2.72
2023-11-18T03:03:01.821Z,2.88
2023-11-18T03:05:28.622Z,2.70
2023-11-18T03:07:59.157Z,2.85
2023-11-18T03:10:26.064Z,2.65
2023-11-18T03:12:54.681Z,2.67
2023-11-18T03:15:23.091Z,2.88
2023-11-18T03:17:51.454Z,3.25
2023-11-18T03:20:24.133Z,2.85
2023-11-18T03:22:52.504Z,2.83
2023-11-18T03:25:23.414Z,3.10
2023-11-18T03:27:50.424Z,3.28
2023-11-18T03:30:18.173Z,3.40
2023-11-18T03:32:45.481Z,3.15
2023-11-18T03:35:12.601Z,2.80
2023-11-18T03:37:42.685Z,3.42
2023-11-18T03:40:14.977Z,3.58
2023-11-18T03:42:48.185Z,3.40
2023-11-18T03:45:16.325Z,3.65
2023-11-18T03:47:43.206Z,3.28
2023-11-18T03:50:10.644Z,3.63
2023-11-18T03:52:39.149Z,3.50
2023-11-18T03:55:06.672Z,3.58
2023-11-18T03:57:33.572Z,3.83
2023-11-18T04:00:00.518Z,3.70
2023-11-18T04:02:27.455Z,3.88
2023-11-18T04:04:54.454Z,3.50
2023-11-18T04:07:22.993Z,3.53
2023-11-18T04:09:49.839Z,3.80
2023-11-18T04:12:17.440Z,3.78
2023-11-18T04:14:44.271Z,3.85
2023-11-18T04:17:11.154Z,3.95
2023-11-18T04:19:38.762Z,3.60
2023-11-18T04:22:05.790Z,4.00
2023-11-18T04:24:32.809Z,3.50
2023-11-18T04:26:59.566Z,3.80
2023-11-18T04:29:27.782Z,4.20
2023-11-18T04:31:54.863Z,3.70
2023-11-18T04:34:21.711Z,3.92
2023-11-18T04:36:48.516Z,3.80
2023-11-18T04:39:17.042Z,4.25
2023-11-18T04:41:44.009Z,3.80
2023-11-18T04:44:10.820Z,3.58
2023-11-18T04:46:38.121Z,3.65
2023-11-18T04:49:06.637Z,3.72
2023-11-18T04:51:34.228Z,3.45
2023-11-18T04:54:01.211Z,3.75
2023-11-18T04:56:27.992Z,3.65
2023-11-18T04:58:55.219Z,3.97
2023-11-18T05:01:22.335Z,4.32
2023-11-18T05:03:49.392Z,4.03
2023-11-18T05:06:16.352Z,3.95
2023-11-18T05:08:43.274Z,4.05
2023-11-18T05:11:10.131Z,4.10
2023-11-18T05:13:36.994Z,4.40
2023-11-18T05:16:05.042Z,4.20
2023-11-18T05:18:36.616Z,3.97
2023-11-18T05:21:07.627Z,4.32
2023-11-18T05:23:37.639Z,4.00
2023-11-18T05:26:07.739Z,4.30
2023-11-18T05:28:35.094Z,3.90
2023-11-18T05:31:06.122Z,3.70
2023-11-18T05:33:35.658Z,3.65
2023-11-18T05:36:06.108Z,3.90
2023-11-18T05:38:35.933Z,4.25
2023-11-18T05:41:04.504Z,4.00
2023-11-18T05:43:41.205Z,4.43
2023-11-18T05:46:25.879Z,4.70
2023-11-18T05:48:54.021Z,4.30
2023-11-18T05:51:26.402Z,4.35
2023-11-18T05:53:53.866Z,4.00
2023-11-18T05:56:23.942Z,4.03
2023-11-18T05:58:51.595Z,4.35
2023-11-18T06:01:18.932Z,4.20
2023-11-18T06:03:47.194Z,4.20
2023-11-18T06:06:20.990Z,4.20
2023-11-18T06:08:50.517Z,4.10
2023-11-18T06:11:17.717Z,3.92
2023-11-18T06:13:50.258Z,4.18
2023-11-18T06:16:27.849Z,4.13
2023-11-18T06:18:56.779Z,4.05
2023-11-18T06:21:32.142Z,3.92
2023-11-18T06:24:00.921Z,3.90
2023-11-18T06:26:28.350Z,3.75
2023-11-18T06:28:56.425Z,4.28
2023-11-18T06:31:25.057Z,4.57
2023-11-18T06:33:52.044Z,4.15
2023-11-18T06:36:23.577Z,4.40
2023-11-18T06:38:52.153Z,4.20
2023-11-18T06:41:34.547Z,4.38
2023-11-18T06:44:09.975Z,4.05
2023-11-18T06:46:38.102Z,3.80
2023-11-18T06:49:05.770Z,3.80
2023-11-18T06:51:36.361Z,4.03
2023-11-18T06:54:09.544Z,4.00
2023-11-18T06:56:43.744Z,4.20
2023-11-18T06:59:13.749Z,3.80
2023-11-18T07:01:45.959Z,4.47
2023-11-18T07:04:15.939Z,3.95
2023-11-18T07:06:44.313Z,4.43
2023-11-18T07:09:15.485Z,4.10
2023-11-18T07:11:42.486Z,4.03
2023-11-18T07:14:10.668Z,4.80
2023-11-18T07:16:40.322Z,4.32
2023-11-18T07:19:07.284Z,4.35
2023-11-18T07:21:35.167Z,4.50
2023-11-18T07:24:03.583Z,4.55
2023-11-18T07:26:30.587Z,5.03
2023-11-18T07:28:57.406Z,4.80
2023-11-18T07:31:25.841Z,4.65
2023-11-18T07:33:53.662Z,4.57
2023-11-18T07:36:23.413Z,4.38
2023-11-18T07:38:52.932Z,4.40
2023-11-18T07:41:25.617Z,4.55
2023-11-18T07:43:56.989Z,4.93
2023-11-18T07:46:24.037Z,4.40
2023-11-18T07:48:53.057Z,4.15
2023-11-18T07:51:24.141Z,4.10
2023-11-18T07:53:51.798Z,4.57
2023-11-18T07:56:19.008Z,4.18
2023-11-18T07:58:49.110Z,3.83
2023-11-18T08:01:19.264Z,3.85
2023-11-18T08:06:13.795Z,3.53
2023-11-18T08:08:42.014Z,3.92
2023-11-18T08:11:12.459Z,3.92
2023-11-18T08:13:39.317Z,4.10
2023-11-18T08:16:08.408Z,4.30
2023-11-18T08:18:36.775Z,4.10
2023-11-18T08:21:06.173Z,4.10
2023-11-18T08:23:33.070Z,4.23
2023-11-18T08:26:00.212Z,4.13
2023-11-18T08:28:27.145Z,3.90
2023-11-18T08:30:54.158Z,3.63
2023-11-18T08:33:25.426Z,3.80
2023-11-18T08:35:52.471Z,4.05
2023-11-18T08:38:19.334Z,3.58
2023-11-18T08:40:48.456Z,3.20
2023-11-18T08:43:17.461Z,3.50
2023-11-18T08:45:44.403Z,3.35
2023-11-18T08:48:12.123Z,3.40
2023-11-18T08:50:42.291Z,3.15
2023-11-18T08:53:11.277Z,3.67
2023-11-18T08:55:52.705Z,2.92
2023-11-18T08:58:30.184Z,2.75
2023-11-18T09:01:15.169Z,2.92
2023-11-18T09:03:53.281Z,3.20
2023-11-18T09:06:27.156Z,3.13
2023-11-18T09:08:55.114Z,3.10
2023-11-18T09:11:23.892Z,3.10
2023-11-18T09:13:55.123Z,3.05
2023-11-18T09:16:30.345Z,3.13
2023-11-18T09:19:00.566Z,2.78
2023-11-18T09:23:59.952Z,2.58
2023-11-18T09:26:31.177Z,2.60
2023-11-18T09:29:02.890Z,2.70
2023-11-18T09:31:30.378Z,2.53
2023-11-18T09:33:58.711Z,2.40
2023-11-18T09:36:25.730Z,2.90
2023-11-18T09:38:53.659Z,2.33
2023-11-18T09:41:25.538Z,2.45
2023-11-18T09:43:55.571Z,2.60
2023-11-18T09:46:29.969Z,2.53
2023-11-18T09:49:18.385Z,2.40
2023-11-18T09:51:49.131Z,2.40
2023-11-18T09:54:37.628Z,2.55
2023-11-18T09:57:41.111Z,2.40
2023-11-18T10:00:20.650Z,2.50
2023-11-18T10:02:51.546Z,2.58
2023-11-18T10:05:23.655Z,2.08
2023-11-18T10:07:52.301Z,2.70
2023-11-18T10:10:21.848Z,2.10
2023-11-18T10:12:53.720Z,2.17
2023-11-18T10:15:26.624Z,1.95
2023-11-18T10:18:10.884Z,1.80
2023-11-18T10:20:42.156Z,2.03
2023-11-18T10:23:12.009Z,2.08
2023-11-18T10:25:49.236Z,1.73
2023-11-18T10:28:34.921Z,1.80
2023-11-18T10:31:05.984Z,1.70
2023-11-18T10:33:43.263Z,1.77
2023-11-18T10:36:25.358Z,1.48
2023-11-18T10:38:57.228Z,1.70
2023-11-18T10:41:25.063Z,1.60
2023-11-18T10:44:07.543Z,2.40
2023-11-18T10:46:34.550Z,1.65
2023-11-18T10:49:02.175Z,1.60
2023-11-18T10:51:31.954Z,1.73
2023-11-18T10:54:05.376Z,1.60
2023-11-18T10:56:34.083Z,1.58
2023-11-18T10:59:09.989Z,1.50
2023-11-18T11:01:44.975Z,1.70
2023-11-18T11:04:12.473Z,1.48
2023-11-18T11:06:43.355Z,1.73
2023-11-18T11:09:17.819Z,1.83
2023-11-18T11:12:05.619Z,1.50
2023-11-18T11:14:39.750Z,1.67
2023-11-18T11:17:18.649Z,1.40
2023-11-18T11:20:24.684Z,1.45
2023-11-18T11:23:08.953Z,1.27
2023-11-18T11:26:01.160Z,1.40
2023-11-18T11:28:44.466Z,1.48
2023-11-18T11:31:12.092Z,1.40
2023-11-18T11:33:46.798Z,1.30
2023-11-18T11:36:24.045Z,1.40
2023-11-18T11:38:57.032Z,1.58
2023-11-18T11:41:28.076Z,1.40
2023-11-18T11:43:59.258Z,1.23
2023-11-18T11:46:34.450Z,1.50
2023-11-18T11:49:09.194Z,1.63
2023-11-18T11:51:41.054Z,1.67
2023-11-18T11:54:16.533Z,1.38
2023-11-18T11:57:00.517Z,1.40
2023-11-18T11:59:57.489Z,1.33
2023-11-18T12:02:27.738Z,1.42
2023-11-18T12:07:33.095Z,1.40
2023-11-18T12:10:01.715Z,1.67
2023-11-18T12:12:29.123Z,1.63
2023-11-18T12:14:58.544Z,1.55
2023-11-18T12:17:29.705Z,1.67
2023-11-18T12:20:12.180Z,1.63
2023-11-18T12:23:15.297Z,1.48
2023-11-18T12:25:42.934Z,1.55
2023-11-18T12:28:11.310Z,1.27
2023-11-18T12:30:45.112Z,1.40
2023-11-18T12:33:19.262Z,1.60
2023-11-18T12:35:52.605Z,1.30
2023-11-18T12:38:41.170Z,1.45
2023-11-18T12:41:12.636Z,1.30
2023-11-18T12:43:53.021Z,1.58
2023-11-18T12:48:52.799Z,1.60
2023-11-18T12:51:22.994Z,1.48
2023-11-18T12:53:54.897Z,1.63
2023-11-18T12:56:21.979Z,1.63
2023-11-18T12:58:48.880Z,1.60
2023-11-18T13:01:17.238Z,1.48
2023-11-18T13:03:45.331Z,1.40
2023-11-18T13:06:15.425Z,1.45
2023-11-18T13:08:42.941Z,1.70
2023-11-18T13:11:17.261Z,1.50
2023-11-18T13:13:44.908Z,1.60
2023-11-18T13:16:11.860Z,1.67
2023-11-18T13:18:52.818Z,1.55
2023-11-18T13:21:21.718Z,1.60
2023-11-18T13:23:54.042Z,1.58
2023-11-18T13:26:22.184Z,1.38
2023-11-18T13:28:50.455Z,1.50
2023-11-18T13:31:18.737Z,1.42
2023-11-18T13:33:48.701Z,1.55
2023-11-18T13:36:16.011Z,1.20
2023-11-18T13:38:42.903Z,1.40
2023-11-18T13:41:10.595Z,1.58
2023-11-18T13:43:44.116Z,1.90
2023-11-18T13:46:22.373Z,1.50
2023-11-18T13:48:52.323Z,1.40
2023-11-18T13:51:21.227Z,1.50
2023-11-18T13:53:48.699Z,1.77
2023-11-18T13:56:16.641Z,1.40
2023-11-18T13:58:46.468Z,1.35
2023-11-18T14:01:17.268Z,1.58
2023-11-18T14:03:45.087Z,1.60
2023-11-18T14:06:12.250Z,2.08
2023-11-18T14:08:39.969Z,1.80
2023-11-18T14:11:15.133Z,1.90
2023-11-18T14:13:44.847Z,1.83
2023-11-18T14:16:13.673Z,1.67
2023-11-18T14:18:43.000Z,1.83
2023-11-18T14:21:10.550Z,1.95
2023-11-18T14:23:39.003Z,1.60
2023-11-18T14:26:07.113Z,1.67
2023-11-18T14:28:35.779Z,2.08
2023-11-18T14:31:08.804Z,1.90
2023-11-18T14:33:35.715Z,1.67
2023-11-18T14:36:02.491Z,1.42
2023-11-18T14:38:29.444Z,1.60
2023-11-18T14:40:56.300Z,1.60
2023-11-18T14:43:23.121Z,2.72
2023-11-18T14:45:50.046Z,2.30
2023-11-18T14:48:16.949Z,1.95
2023-11-18T14:50:44.392Z,1.60
2023-11-18T14:53:11.246Z,1.70
2023-11-18T14:55:38.127Z,1.60
2023-11-18T14:58:08.161Z,1.50
2023-11-18T15:00:35.563Z,1.50
2023-11-18T15:03:02.645Z,1.65
2023-11-18T15:05:30.160Z,1.90
2023-11-18T15:07:58.741Z,1.50
2023-11-18T15:10:26.858Z,1.65
2023-11-18T15:12:56.194Z,1.50
2023-11-18T15:15:33.797Z,1.50
2023-11-18T15:18:11.108Z,1.52
2023-11-18T15:20:38.558Z,1.65
2023-11-18T15:23:06.062Z,1.50
2023-11-18T15:25:33.242Z,1.40
2023-11-18T15:28:00.065Z,1.52
2023-11-18T15:30:28.130Z,1.45
2023-11-18T15:32:55.031Z,1.52
2023-11-18T15:35:24.554Z,1.50
2023-11-18T15:37:52.052Z,1.30
2023-11-18T15:40:26.055Z,1.50
2023-11-18T15:42:53.034Z,1.55
2023-11-18T15:45:27.770Z,1.77
2023-11-18T15:47:55.076Z,2.33
2023-11-18T15:50:22.197Z,3.30
2023-11-18T15:52:55.413Z,2.50
2023-11-18T15:55:22.879Z,2.20
2023-11-18T15:57:54.430Z,2.63
2023-11-18T16:00:23.249Z,2.35
2023-11-18T16:03:01.818Z,2.38
2023-11-18T16:05:34.596Z,2.22
2023-11-18T16:08:02.741Z,2.30
2023-11-18T16:10:29.716Z,2.50
2023-11-18T16:13:00.993Z,2.58
2023-11-18T16:15:29.614Z,2.50
2023-11-18T16:17:58.678Z,2.10
2023-11-18T16:20:27.845Z,1.80
2023-11-18T16:22:56.359Z,2.08
2023-11-18T16:25:31.350Z,1.70
2023-11-18T16:28:00.290Z,1.90
2023-11-18T16:30:31.813Z,2.45
2023-11-18T16:33:02.312Z,2.70
2023-11-18T16:35:30.477Z,2.53
2023-11-18T16:37:57.974Z,3.67
2023-11-18T16:40:25.766Z,3.50
2023-11-18T16:42:56.570Z,3.65
2023-11-18T16:45:25.487Z,3.38
2023-11-18T16:47:53.948Z,4.03
2023-11-18T16:50:23.677Z,3.38
2023-11-18T16:52:51.438Z,3.53
2023-11-18T16:55:18.333Z,3.33
2023-11-18T16:57:46.859Z,3.47
2023-11-18T17:00:18.567Z,3.50
2023-11-18T17:02:48.146Z,3.17
2023-11-18T17:05:15.503Z,3.85
2023-11-18T17:07:43.187Z,3.80
2023-11-18T17:10:12.693Z,3.70
2023-11-18T17:12:43.923Z,3.30
2023-11-18T17:15:17.454Z,3.53
2023-11-18T17:17:47.224Z,3.03
2023-11-18T17:20:16.670Z,2.95
2023-11-18T17:22:44.678Z,2.88
2023-11-18T17:25:17.535Z,2.88
2023-11-18T17:27:46.045Z,3.53
2023-11-18T17:30:17.338Z,3.15
2023-11-18T17:32:45.229Z,3.05
2023-11-18T17:35:16.766Z,3.25
2023-11-18T17:37:45.335Z,3.30
2023-11-18T17:40:13.124Z,3.67
2023-11-18T17:42:40.874Z,3.13
2023-11-18T17:45:09.261Z,3.35
2023-11-18T17:47:37.774Z,3.58
2023-11-18T17:50:10.190Z,2.90
2023-11-18T17:52:37.603Z,3.25
2023-11-18T17:55:05.759Z,2.78
2023-11-18T17:57:32.668Z,2.67
2023-11-18T17:59:59.535Z,3.30
2023-11-18T18:02:26.397Z,3.50
2023-11-18T18:04:53.221Z,3.75
2023-11-18T18:07:20.025Z,4.47
2023-11-18T18:09:47.116Z,4.28
2023-11-18T18:12:14.413Z,4.20
2023-11-18T18:14:41.299Z,3.70
2023-11-18T18:17:08.310Z,4.28
2023-11-18T18:19:35.257Z,3.25
2023-11-18T18:22:02.109Z,3.70
2023-11-18T18:24:28.932Z,3.30
2023-11-18T18:26:55.877Z,3.10
2023-11-18T18:29:22.910Z,3.20
2023-11-18T18:31:49.749Z,3.40
2023-11-18T18:34:16.684Z,4.13
2023-11-18T18:36:43.478Z,2.92
2023-11-18T18:39:10.225Z,2.40
2023-11-18T18:41:37.046Z,2.80
2023-11-18T18:44:03.925Z,2.92
2023-11-18T18:46:30.826Z,3.10
2023-11-18T18:48:57.675Z,3.40
2023-11-18T18:51:24.515Z,3.38
2023-11-18T18:53:51.415Z,4.10
2023-11-18T18:56:18.360Z,4.65
2023-11-18T18:58:45.251Z,5.20
2023-11-18T19:01:12.017Z,5.68
2023-11-18T19:03:38.893Z,7.50
2023-11-18T19:06:06.215Z,7.72
2023-11-18T19:08:33.123Z,6.22
2023-11-18T19:10:59.987Z,4.75
2023-11-18T19:13:26.808Z,4.03
2023-11-18T19:15:53.953Z,9.25
2023-11-18T19:18:20.838Z,4.95
2023-11-18T19:20:47.630Z,5.80
2023-11-18T19:23:14.607Z,9.15
2023-11-18T19:25:41.386Z,3.85
2023-11-18T19:28:10.559Z,8.30
2023-11-18T19:30:37.529Z,7.55
2023-11-18T19:33:05.090Z,6.72
2023-11-18T19:35:35.970Z,5.85
2023-11-18T19:38:07.680Z,4.00
2023-11-18T19:40:34.783Z,2.58
2023-11-18T19:43:01.624Z,1.80
2023-11-18T19:45:28.637Z,1.77
2023-11-18T19:47:55.529Z,1.58
2023-11-18T19:52:52.144Z,1.23
2023-11-18T19:55:19.238Z,1.30
2023-11-18T19:57:46.060Z,1.33
2023-11-18T20:00:17.490Z,1.20
2023-11-18T20:02:45.427Z,1.10
2023-11-18T20:05:12.400Z,1.23
2023-11-18T20:07:40.207Z,1.20
2023-11-18T20:10:09.390Z,1.38
2023-11-18T20:12:36.511Z,1.25
2023-11-18T20:15:03.661Z,1.20
2023-11-18T20:17:33.204Z,1.17
2023-11-18T20:20:00.715Z,1.25
2023-11-18T20:22:27.622Z,1.23
2023-11-18T20:24:54.394Z,1.30
2023-11-18T20:27:21.330Z,1.20
2023-11-18T20:29:48.112Z,1.25
2023-11-18T20:32:14.876Z,1.23
2023-11-18T20:34:41.763Z,1.35
2023-11-18T20:37:08.631Z,1.40
2023-11-18T20:39:35.894Z,1.30
2023-11-18T20:42:02.715Z,1.40
2023-11-18T20:44:38.266Z,1.65
2023-11-18T20:47:05.794Z,1.50
2023-11-18T20:49:32.559Z,1.60
2023-11-18T20:51:59.578Z,1.50
2023-11-18T20:54:26.564Z,1.40
2023-11-18T20:56:53.408Z,1.40
2023-11-18T20:59:21.007Z,1.40
2023-11-18T21:01:47.970Z,1.30
2023-11-18T21:04:16.593Z,1.50
2023-11-18T21:06:43.694Z,1.52
2023-11-18T21:09:10.522Z,1.30
2023-11-18T21:11:37.317Z,1.40
2023-11-18T21:14:04.527Z,1.50
2023-11-18T21:16:32.850Z,1.40
2023-11-18T21:19:01.911Z,1.52
2023-11-18T21:21:28.945Z,1.65
2023-11-18T21:23:55.911Z,1.45
2023-11-18T21:26:25.658Z,1.55
2023-11-18T21:28:52.560Z,1.20
2023-11-18T21:31:19.677Z,1.40
2023-11-18T21:33:46.475Z,1.35
2023-11-18T21:36:15.284Z,1.30
2023-11-18T21:38:42.439Z,1.33
2023-11-18T21:41:09.554Z,1.40
2023-11-18T21:43:36.764Z,1.42
2023-11-18T21:46:03.718Z,1.30
2023-11-18T21:48:31.573Z,1.60
2023-11-18T21:50:58.419Z,1.50
2023-11-18T21:53:28.838Z,1.45
2023-11-18T21:55:56.308Z,1.40
2023-11-18T21:58:24.707Z,1.60
2023-11-18T22:00:52.448Z,1.30
2023-11-18T22:03:19.570Z,1.27
2023-11-18T22:05:47.963Z,1.50
2023-11-18T22:08:21.169Z,1.40
2023-11-18T22:10:48.147Z,1.38
2023-11-18T22:13:15.549Z,1.20
2023-11-18T22:15:42.354Z,1.40
2023-11-18T22:18:11.807Z,1.45
2023-11-18T22:20:42.477Z,1.52
2023-11-18T22:23:09.293Z,1.23
2023-11-18T22:25:37.128Z,1.30
2023-11-18T22:28:04.382Z,4.68
2023-11-18T22:30:31.639Z,3.55
2023-11-18T22:33:01.045Z,2.00
2023-11-18T22:35:28.540Z,2.80
2023-11-18T22:38:00.300Z,2.40
2023-11-18T22:40:27.865Z,2.45
2023-11-18T22:42:54.886Z,1.90
2023-11-18T22:45:21.807Z,2.20
2023-11-18T22:47:52.376Z,2.22
2023-11-18T22:50:22.604Z,2.03
2023-11-18T22:52:54.642Z,2.25
2023-11-18T22:55:23.019Z,2.20
2023-11-18T22:57:50.170Z,2.35
2023-11-18T23:00:35.726Z,2.33
2023-11-18T23:03:07.680Z,2.30
2023-11-18T23:05:40.978Z,2.22
2023-11-18T23:08:10.840Z,2.22
2023-11-18T23:10:41.079Z,2.45
2023-11-18T23:13:08.692Z,2.70
2023-11-18T23:15:36.655Z,2.63
2023-11-18T23:18:05.344Z,2.80
2023-11-18T23:20:33.005Z,2.55
2023-11-18T23:23:01.114Z,2.28
2023-11-18T23:25:27.996Z,2.40
2023-11-18T23:30:24.969Z,2.40
2023-11-18T23:32:55.914Z,2.58
2023-11-18T23:35:22.883Z,2.47
2023-11-18T23:37:52.261Z,2.20
2023-11-18T23:40:20.699Z,2.20
2023-11-18T23:42:48.995Z,2.65
2023-11-18T23:45:19.726Z,2.40
2023-11-18T23:47:51.103Z,2.22
2023-11-18T23:50:18.082Z,2.35
2023-11-18T23:52:44.828Z,2.20
2023-11-18T23:55:14.824Z,2.42
2023-11-18T23:57:42.599Z,2.30
